Startpagina
METAR-TAF:

METAR-TAF

Vliegvelden :

Seletar Airport

Singapore, Singapore

breedte: 01-25-08N, lengte: 103-51-57E, hoogte: 11 m

Actueel weer

Dit bericht is 1 uur en het 2 minuten geleden gemaakt, om 15:00 UTC
Wind 2 kt uit variabele richting
Temperatuur 27°C
Vochtigheid 84%
Druk 1009 hPa
Zicht 10 km of meer
Weinig wolken op 1800 ft
Gebroken wolken op 30000 ft

METAR: WSSL 211500Z VRB02KT 9999 FEW018 BKN300 27/24 Q1009

Tijdstip: 00:02 (16:02 UTC)

Verwachting

Dit bericht is 5 uur en het 2 minuten geleden gemaakt, om 11:00 UTC
Verwachting geldig van 21 om 12 UTC tot 22 om 18 UTC
Wind 10 kt uit het zuidzuidoosten
Zicht 10 km of meer
Weinig wolken op 1500 ft
Verspreide wolken op 2000 ft
Tijdelijke
van 22 om 04 UTC tot 22 om 08 UTC
Zicht: 3000 m
Weinig wolken op 1200 ft, Cumulonimbus.
Gebroken wolken op 1500 ft
onweer, regen

TAF: WSSL 211100Z 2112/2218 16010KT 9999 FEW015 SCT020 TEMPO 2204/2208 3000 TSRA FEW012CB BKN015

Waarnemingen en weersverwachtingen van meer dan 4000 vliegvelden (METAR en TAF).

De beschikbare stations zijn de gele en rode punten op de kaart.

Ga met uw muis naar het station om de naam te zien.

Klik dan om waarnemingen en weersverwachtingen te zien.

kaart wijzigen: klik op de groene knoppen met een zwart kruis om in te zoomen, op de groene knop met een streepje om uit te zoomen of op de groene pijlen voor aangrenzende kaarten.


METAR-TAF: